createdAt,value
2023-05-16T00:00:06.427Z,11.25
2023-05-16T01:00:04.176Z,15.38
2023-05-16T01:02:47.275Z,10.83
2023-05-16T01:05:43.936Z,11.67
2023-05-16T01:11:40.786Z,12.60
2023-05-16T01:14:27.963Z,11.80
2023-05-16T01:17:34.137Z,10.77
2023-05-16T01:33:13.632Z,13.75
2023-05-16T01:36:08.778Z,14.05
2023-05-16T01:42:10.003Z,13.18
2023-05-16T01:51:31.387Z,10.90
2023-05-16T01:54:31.486Z,12.05
2023-05-16T01:57:09.354Z,10.55
2023-05-16T01:59:56.938Z,13.02
2023-05-16T02:02:45.109Z,10.73
2023-05-16T02:05:45.597Z,14.10
2023-05-16T02:08:28.488Z,20.25
2023-05-16T02:43:47.234Z,12.80
2023-05-16T02:46:40.563Z,10.88
2023-05-16T02:49:31.407Z,10.05
2023-05-16T02:52:26.552Z,11.57
2023-05-16T02:55:23.846Z,15.77
2023-05-16T02:58:13.312Z,16.33
2023-05-16T03:00:53.231Z,12.50
2023-05-16T03:03:34.098Z,11.70
2023-05-16T03:06:16.731Z,10.27
2023-05-16T03:08:52.287Z,11.43
2023-05-16T03:11:33.139Z,14.40
2023-05-16T03:14:10.061Z,10.25
2023-05-16T03:16:48.366Z,13.25
2023-05-16T03:19:27.547Z,14.65
2023-05-16T03:22:02.728Z,13.65
2023-05-16T03:27:58.962Z,12.15
2023-05-16T03:30:46.185Z,14.07
2023-05-16T03:33:34.220Z,10.90
2023-05-16T03:36:13.603Z,12.35
2023-05-16T03:38:54.510Z,8.90
2023-05-16T03:41:51.355Z,8.95
2023-05-16T03:47:40.658Z,8.90
2023-05-16T03:50:41.162Z,9.32
2023-05-16T03:53:25.767Z,13.35
2023-05-16T03:56:01.591Z,9.07
2023-05-16T03:58:39.669Z,13.45
2023-05-16T04:01:22.484Z,11.90
2023-05-16T04:07:20.819Z,15.30
2023-05-16T04:10:00.227Z,15.40
2023-05-16T04:12:50.338Z,13.80
2023-05-16T04:15:36.326Z,12.70
2023-05-16T04:18:19.945Z,14.98
2023-05-16T04:21:16.142Z,14.90
2023-05-16T04:23:59.642Z,21.80
2023-05-16T04:26:36.099Z,21.38
2023-05-16T04:29:12.359Z,21.00
2023-05-16T04:31:51.434Z,17.33
2023-05-16T04:34:29.983Z,16.85
2023-05-16T05:14:29.753Z,10.35
2023-05-16T05:17:07.113Z,10.20
2023-05-16T05:19:44.250Z,9.90
2023-05-16T05:22:21.357Z,9.05
2023-05-16T05:25:01.102Z,10.30
2023-05-16T05:30:24.969Z,9.65
2023-05-16T05:33:13.096Z,8.80
2023-05-16T05:35:49.290Z,8.35
2023-05-16T05:38:28.955Z,8.35
2023-05-16T05:41:12.327Z,8.80
2023-05-16T05:43:49.412Z,9.05
2023-05-16T05:46:41.537Z,8.68
2023-05-16T05:49:25.177Z,8.00
2023-05-16T05:52:03.639Z,8.15
2023-05-16T05:54:39.895Z,9.07
2023-05-16T05:57:25.568Z,8.30
2023-05-16T06:00:05.607Z,8.02
2023-05-16T06:02:45.724Z,8.63
2023-05-16T06:05:27.291Z,8.93
2023-05-16T06:08:09.168Z,8.50
2023-05-16T06:10:44.668Z,8.18
2023-05-16T06:13:21.147Z,8.40
2023-05-16T06:15:57.311Z,8.57
2023-05-16T06:18:33.361Z,8.50
2023-05-16T06:21:15.981Z,9.37
2023-05-16T06:23:54.845Z,8.38
2023-05-16T06:26:30.792Z,8.80
2023-05-16T06:31:52.612Z,8.80
2023-05-16T06:34:38.320Z,9.20
2023-05-16T06:37:17.379Z,8.40
2023-05-16T06:40:23.022Z,9.05
2023-05-16T06:42:59.522Z,8.85
2023-05-16T06:45:45.591Z,8.15
2023-05-16T06:48:23.424Z,8.80
2023-05-16T06:57:53.099Z,8.70
2023-05-16T07:01:13.145Z,9.05
2023-05-16T07:04:17.974Z,9.00
2023-05-16T07:07:20.139Z,9.20
2023-05-16T07:09:58.271Z,8.70
2023-05-16T07:12:51.473Z,8.85
2023-05-16T07:15:31.303Z,8.40
2023-05-16T07:18:09.515Z,9.32
2023-05-16T07:20:46.289Z,8.80
2023-05-16T07:23:23.311Z,9.90
2023-05-16T07:26:02.126Z,9.88
2023-05-16T07:28:46.837Z,8.75
2023-05-16T07:31:23.498Z,9.70
2023-05-16T07:34:04.174Z,8.50
2023-05-16T07:36:41.119Z,8.30
2023-05-16T07:39:17.239Z,9.10
2023-05-16T07:41:53.226Z,8.70
2023-05-16T07:44:36.273Z,8.00
2023-05-16T07:47:15.185Z,8.63
2023-05-16T07:49:53.179Z,8.23
2023-05-16T07:52:31.787Z,8.27
2023-05-16T07:55:12.972Z,8.32
2023-05-16T07:57:48.023Z,8.13
2023-05-16T08:00:30.120Z,7.83
2023-05-16T08:03:09.403Z,7.72
2023-05-16T08:05:49.725Z,7.80
2023-05-16T08:08:31.621Z,8.13
2023-05-16T08:11:09.944Z,7.80
2023-05-16T08:13:48.136Z,8.13
2023-05-16T08:16:27.797Z,8.43
2023-05-16T08:19:03.442Z,8.57
2023-05-16T08:24:16.469Z,7.00
2023-05-16T08:26:56.618Z,7.40
2023-05-16T08:29:33.769Z,8.25
2023-05-16T08:32:15.119Z,7.95
2023-05-16T08:34:53.156Z,7.50
2023-05-16T08:37:31.121Z,7.18
2023-05-16T08:40:08.947Z,6.75
2023-05-16T08:42:46.662Z,6.35
2023-05-16T08:45:22.720Z,6.03
2023-05-16T08:48:03.477Z,6.15
2023-05-16T08:50:39.781Z,7.55
2023-05-16T08:53:17.351Z,7.50
2023-05-16T08:55:53.463Z,8.52
2023-05-16T08:58:30.526Z,7.60
2023-05-16T09:01:09.330Z,6.88
2023-05-16T09:03:51.381Z,7.00
2023-05-16T09:06:28.078Z,7.10
2023-05-16T09:09:09.252Z,6.32
2023-05-16T09:11:48.114Z,6.57
2023-05-16T09:14:24.433Z,6.28
2023-05-16T09:17:12.772Z,5.90
2023-05-16T09:19:53.441Z,6.03
2023-05-16T09:22:30.634Z,5.28
2023-05-16T09:25:12.716Z,5.50
2023-05-16T09:27:52.052Z,5.78
2023-05-16T09:30:28.452Z,6.72
2023-05-16T09:33:05.889Z,6.30
2023-05-16T09:35:50.981Z,6.82
2023-05-16T09:38:27.230Z,6.45
2023-05-16T09:41:03.992Z,5.30
2023-05-16T09:43:44.647Z,5.50
2023-05-16T09:46:24.670Z,6.10
2023-05-16T09:49:01.797Z,6.40
2023-05-16T09:51:40.868Z,5.10
2023-05-16T09:54:19.473Z,6.57
2023-05-16T09:57:09.523Z,6.80
2023-05-16T10:02:42.206Z,6.20
2023-05-16T10:05:20.864Z,6.60
2023-05-16T10:08:00.262Z,6.18
2023-05-16T10:10:40.910Z,6.57
2023-05-16T10:13:17.582Z,6.40
2023-05-16T10:15:53.465Z,7.30
2023-05-16T10:18:33.161Z,7.82
2023-05-16T10:21:11.777Z,7.53
2023-05-16T10:23:54.432Z,7.55
2023-05-16T10:26:33.026Z,8.10
2023-05-16T10:29:08.904Z,8.27
2023-05-16T10:31:48.917Z,8.85
2023-05-16T10:34:26.415Z,9.15
2023-05-16T10:37:02.625Z,9.40
2023-05-16T10:42:56.596Z,8.40
2023-05-16T10:49:00.314Z,7.90
2023-05-16T10:51:42.517Z,9.30
2023-05-16T10:54:43.757Z,9.90
2023-05-16T10:57:54.348Z,9.77
2023-05-16T11:00:54.879Z,10.60
2023-05-16T11:03:51.619Z,10.55
2023-05-16T11:07:02.404Z,11.25
2023-05-16T11:09:57.491Z,11.98
2023-05-16T11:24:38.996Z,13.52
2023-05-16T11:27:38.257Z,13.20
2023-05-16T11:30:25.240Z,12.20
2023-05-16T11:33:11.145Z,11.80
2023-05-16T11:38:45.006Z,11.10
2023-05-16T11:41:29.552Z,10.63
2023-05-16T11:44:09.108Z,10.70
2023-05-16T11:46:58.573Z,12.40
2023-05-16T11:49:51.506Z,12.35
2023-05-16T11:52:38.075Z,14.37
2023-05-16T11:55:32.228Z,13.68
2023-05-16T11:58:20.445Z,13.73
2023-05-16T12:00:57.073Z,14.10
2023-05-16T12:03:34.565Z,14.30
2023-05-16T12:06:34.611Z,13.30
2023-05-16T12:09:12.535Z,12.65
2023-05-16T12:11:56.555Z,12.80
2023-05-16T12:17:23.157Z,14.73
2023-05-16T12:20:06.639Z,17.70
2023-05-16T12:22:47.626Z,17.02
2023-05-16T12:26:04.290Z,16.00
2023-05-16T12:44:21.377Z,13.83
2023-05-16T12:46:59.885Z,13.40
2023-05-16T12:49:45.922Z,13.20
2023-05-16T12:52:21.129Z,12.90
2023-05-16T12:57:57.248Z,14.13
2023-05-16T13:00:39.260Z,14.60
2023-05-16T13:03:22.529Z,14.15
2023-05-16T13:06:02.584Z,15.30
2023-05-16T13:08:40.105Z,14.30
2023-05-16T13:14:10.874Z,16.02
2023-05-16T13:16:49.965Z,16.52
2023-05-16T13:19:29.333Z,15.27
2023-05-16T13:22:11.844Z,16.58
2023-05-16T13:24:47.450Z,17.00
2023-05-16T13:27:26.361Z,15.30
2023-05-16T13:30:03.347Z,15.82
2023-05-16T13:32:44.134Z,16.57
2023-05-16T13:35:22.232Z,16.60
2023-05-16T13:38:01.632Z,17.70
2023-05-16T13:40:46.555Z,16.50
2023-05-16T13:43:20.666Z,17.90
2023-05-16T13:45:56.983Z,20.60
2023-05-16T13:48:40.156Z,21.85
2023-05-16T13:51:20.612Z,22.50
2023-05-16T13:54:00.221Z,21.77
2023-05-16T13:56:39.923Z,22.13
2023-05-16T13:59:32.016Z,22.15
2023-05-16T14:02:15.357Z,22.33
2023-05-16T14:04:56.809Z,20.90
2023-05-16T14:07:36.786Z,20.95
2023-05-16T14:10:17.047Z,22.33
2023-05-16T14:12:55.425Z,21.70
2023-05-16T14:15:30.092Z,22.13
2023-05-16T14:18:08.080Z,23.27
2023-05-16T14:20:48.248Z,23.45
2023-05-16T14:23:25.542Z,23.00
2023-05-16T14:28:36.817Z,24.25
2023-05-16T14:31:15.092Z,25.37
2023-05-16T14:33:49.792Z,25.50
2023-05-16T14:36:32.282Z,25.17
2023-05-16T14:39:17.628Z,23.40
2023-05-16T14:41:59.094Z,23.60
2023-05-16T14:44:39.145Z,23.13
2023-05-16T14:47:24.102Z,22.20
2023-05-16T14:50:00.425Z,20.85
2023-05-16T14:52:47.177Z,21.45
2023-05-16T14:55:25.980Z,20.73
2023-05-16T14:58:05.899Z,21.93
2023-05-16T15:00:41.218Z,22.77
2023-05-16T15:03:19.594Z,21.65
2023-05-16T15:06:00.847Z,23.88
2023-05-16T15:08:43.025Z,23.15
2023-05-16T15:11:18.537Z,23.35
2023-05-16T15:13:58.780Z,23.58
2023-05-16T15:16:35.146Z,23.75
2023-05-16T15:19:12.134Z,21.33
2023-05-16T15:21:53.984Z,21.97
2023-05-16T15:24:37.193Z,21.55
2023-05-16T15:27:23.231Z,20.08
2023-05-16T15:29:58.884Z,21.90
2023-05-16T15:32:35.045Z,21.27
2023-05-16T15:35:13.416Z,21.30
2023-05-16T15:37:49.821Z,23.05
2023-05-16T15:40:32.730Z,23.65
2023-05-16T15:43:10.769Z,23.40
2023-05-16T15:45:50.001Z,22.63
2023-05-16T15:48:29.669Z,21.75
2023-05-16T15:51:07.966Z,21.70
2023-05-16T15:53:47.372Z,21.17
2023-05-16T15:56:27.877Z,21.30
2023-05-16T15:59:12.193Z,21.93
2023-05-16T16:01:49.505Z,21.35
2023-05-16T16:04:32.687Z,20.90
2023-05-16T16:07:10.486Z,21.63
2023-05-16T16:09:49.514Z,21.98
2023-05-16T16:12:29.518Z,21.35
2023-05-16T16:15:09.238Z,20.88
2023-05-16T16:17:49.982Z,22.83
2023-05-16T16:20:35.215Z,23.17
2023-05-16T16:23:12.602Z,22.95
2023-05-16T16:25:51.395Z,30.52
2023-05-16T16:28:33.535Z,49.40
2023-05-16T16:31:10.364Z,25.70
2023-05-16T16:33:45.860Z,22.53
2023-05-16T16:36:24.473Z,21.70
2023-05-16T16:38:59.384Z,22.17
2023-05-16T16:41:36.408Z,21.08
2023-05-16T16:44:18.009Z,21.50
2023-05-16T16:46:52.762Z,23.15
2023-05-16T16:49:32.093Z,22.77
2023-05-16T16:52:09.710Z,23.38
2023-05-16T16:54:47.126Z,22.73
2023-05-16T16:57:24.890Z,24.13
2023-05-16T17:00:06.841Z,24.25
2023-05-16T17:02:44.652Z,25.77
2023-05-16T17:05:21.323Z,25.45
2023-05-16T17:07:58.999Z,37.40
2023-05-16T17:10:34.424Z,35.88
2023-05-16T17:13:12.960Z,28.90
2023-05-16T17:15:54.068Z,30.85
2023-05-16T17:18:28.815Z,28.98
2023-05-16T17:21:05.674Z,39.90
2023-05-16T17:23:44.134Z,51.70
2023-05-16T17:26:23.511Z,28.90
2023-05-16T17:29:01.043Z,29.20
2023-05-16T17:31:40.329Z,26.15
2023-05-16T17:34:16.482Z,26.38
2023-05-16T17:36:52.799Z,25.20
2023-05-16T17:39:31.195Z,24.33
2023-05-16T17:42:07.938Z,21.55
2023-05-16T17:44:47.474Z,23.63
2023-05-16T17:47:30.723Z,24.27
2023-05-16T17:50:09.758Z,23.48
2023-05-16T17:52:53.971Z,22.98
2023-05-16T17:55:30.808Z,22.35
2023-05-16T17:58:10.353Z,22.10
2023-05-16T18:00:49.317Z,22.73
2023-05-16T18:03:31.407Z,22.35
2023-05-16T18:06:08.339Z,23.42
2023-05-16T18:08:52.657Z,22.37
2023-05-16T18:11:31.045Z,22.55
2023-05-16T18:14:15.518Z,29.35
2023-05-16T18:16:54.772Z,28.35
2023-05-16T18:19:39.449Z,29.20
2023-05-16T18:22:25.063Z,27.33
2023-05-16T18:25:21.356Z,23.90
2023-05-16T18:28:06.857Z,27.63
2023-05-16T18:30:41.847Z,25.25
2023-05-16T18:33:24.548Z,27.20
2023-05-16T18:43:19.454Z,26.80
2023-05-16T18:46:03.761Z,28.25
2023-05-16T18:49:00.511Z,28.65
2023-05-16T18:51:45.534Z,30.67
2023-05-16T18:54:34.500Z,29.47
2023-05-16T18:57:25.060Z,29.90
2023-05-16T19:00:03.542Z,28.30
2023-05-16T19:02:53.688Z,29.25
2023-05-16T19:05:38.976Z,29.73
2023-05-16T19:08:52.063Z,29.65
2023-05-16T19:11:30.456Z,30.65
2023-05-16T19:14:10.311Z,28.90
2023-05-16T19:16:47.820Z,30.90
2023-05-16T19:22:32.166Z,29.40
2023-05-16T19:25:20.632Z,27.80
2023-05-16T19:28:12.601Z,28.50
2023-05-16T19:33:48.116Z,27.90
2023-05-16T19:36:27.536Z,28.00
2023-05-16T19:39:19.388Z,28.30
2023-05-16T19:42:11.375Z,27.03
2023-05-16T19:44:47.559Z,27.05
2023-05-16T19:47:36.410Z,27.60
2023-05-16T19:50:11.214Z,28.13
2023-05-16T19:52:50.229Z,29.17
2023-05-16T19:55:35.769Z,29.40
2023-05-16T19:58:29.836Z,27.33
2023-05-16T20:01:18.051Z,26.10
2023-05-16T20:04:01.963Z,28.05
2023-05-16T20:06:51.957Z,28.92
2023-05-16T20:12:35.583Z,27.80
2023-05-16T20:15:27.266Z,26.10
2023-05-16T20:18:07.862Z,21.03
2023-05-16T20:20:51.319Z,18.80
2023-05-16T20:30:01.355Z,21.63
2023-05-16T20:33:09.865Z,17.48
2023-05-16T20:36:03.941Z,19.50
2023-05-16T20:38:46.904Z,20.85
2023-05-16T20:41:26.914Z,21.60
2023-05-16T20:44:08.307Z,20.60
2023-05-16T20:46:48.385Z,21.20
2023-05-16T20:49:29.263Z,21.20
2023-05-16T20:52:16.798Z,21.10
2023-05-16T20:55:08.345Z,21.00
2023-05-16T20:57:44.550Z,21.43
2023-05-16T21:00:21.417Z,22.60
2023-05-16T21:03:01.677Z,22.65
2023-05-16T21:05:37.307Z,21.30
2023-05-16T21:08:18.597Z,20.60
2023-05-16T21:11:04.139Z,21.58
2023-05-16T21:13:41.414Z,20.90
2023-05-16T21:16:18.445Z,23.07
2023-05-16T21:18:58.863Z,23.85
2023-05-16T21:21:39.628Z,22.80
2023-05-16T21:24:17.450Z,23.25
2023-05-16T21:26:56.557Z,23.83
2023-05-16T21:29:34.509Z,23.25
2023-05-16T21:32:10.562Z,21.58
2023-05-16T21:34:51.119Z,22.17
2023-05-16T21:37:30.572Z,22.77
2023-05-16T21:40:09.662Z,21.35
2023-05-16T21:42:54.124Z,22.15
2023-05-16T21:45:32.218Z,21.38
2023-05-16T21:48:09.786Z,20.90
2023-05-16T21:50:45.809Z,22.55
2023-05-16T21:56:00.096Z,22.33
2023-05-16T21:58:42.904Z,20.50
2023-05-16T22:01:26.155Z,24.50
2023-05-16T22:04:01.270Z,22.95
2023-05-16T22:06:38.664Z,21.17
2023-05-16T22:09:15.923Z,24.42
2023-05-16T22:11:53.653Z,21.43
2023-05-16T22:14:33.246Z,20.45
2023-05-16T22:17:12.165Z,21.42
2023-05-16T22:19:50.249Z,21.10
2023-05-16T22:22:30.620Z,21.95
2023-05-16T22:25:11.745Z,19.98
2023-05-16T22:28:30.505Z,22.52
2023-05-16T22:31:53.539Z,21.23
2023-05-16T22:41:02.319Z,21.33
2023-05-16T22:43:36.655Z,22.90
2023-05-16T22:46:12.858Z,21.05
2023-05-16T22:48:56.962Z,22.48
2023-05-16T22:51:39.297Z,22.42
2023-05-16T22:54:20.401Z,20.47
2023-05-16T22:56:57.097Z,22.80
2023-05-16T22:59:35.018Z,22.20
2023-05-16T23:02:12.649Z,23.05
2023-05-16T23:04:52.468Z,23.50
2023-05-16T23:07:34.968Z,22.00
2023-05-16T23:10:17.234Z,20.75
2023-05-16T23:12:53.006Z,22.20
2023-05-16T23:15:30.513Z,20.35
2023-05-16T23:18:23.347Z,21.15
2023-05-16T23:20:54.681Z,22.30
2023-05-16T23:23:39.070Z,21.85
2023-05-16T23:26:26.097Z,20.85
2023-05-16T23:29:15.594Z,21.50
2023-05-16T23:32:05.494Z,19.90
2023-05-16T23:34:50.701Z,20.23
2023-05-16T23:40:48.225Z,19.33
2023-05-16T23:43:32.326Z,19.05
2023-05-16T23:46:12.973Z,21.20
2023-05-16T23:51:57.662Z,20.40
2023-05-16T23:54:47.757Z,19.58
2023-05-16T23:57:31.281Z,20.48
